sensor_id;sensor_type;location;lat;lon;timestamp;pressure;altitude;pressure_sealevel;temperature;humidity
64340;BME280;63709;53.258;-8.814;2024-01-15T00:00:09;101950.06;;;7.45;100.00
64340;BME280;63709;53.258;-8.814;2024-01-15T00:02:34;101941.91;;;7.49;100.00
64340;BME280;63709;53.258;-8.814;2024-01-15T00:05:00;101929.91;;;7.60;100.00
64340;BME280;63709;53.258;-8.814;2024-01-15T00:07:25;101933.59;;;7.57;100.00
64340;BME280;63709;53.258;-8.814;2024-01-15T00:09:50;101932.91;;;7.52;100.00
64340;BME280;63709;53.258;-8.814;2024-01-15T00:12:15;101927.94;;;7.44;100.00
64340;BME280;63709;53.258;-8.814;2024-01-15T00:14:41;101926.06;;;7.67;100.00
64340;BME280;63709;53.258;-8.814;2024-01-15T00:17:07;101924.22;;;7.69;100.00
64340;BME280;63709;53.258;-8.814;2024-01-15T00:19:32;101932.19;;;7.69;100.00
64340;BME280;63709;53.258;-8.814;2024-01-15T00:21:57;101931.09;;;7.73;100.00
64340;BME280;63709;53.258;-8.814;2024-01-15T00:24:23;101933.13;;;7.68;100.00
64340;BME280;63709;53.258;-8.814;2024-01-15T00:26:49;101932.19;;;7.48;100.00
64340;BME280;63709;53.258;-8.814;2024-01-15T00:29:14;101934.84;;;7.69;100.00
64340;BME280;63709;53.258;-8.814;2024-01-15T00:31:39;101934.84;;;7.69;100.00
64340;BME280;63709;53.258;-8.814;2024-01-15T00:34:04;101924.59;;;7.60;100.00
64340;BME280;63709;53.258;-8.814;2024-01-15T00:36:30;101924.56;;;7.61;100.00
64340;BME280;63709;53.258;-8.814;2024-01-15T00:38:55;101915.69;;;7.42;100.00
64340;BME280;63709;53.258;-8.814;2024-01-15T00:41:21;101912.91;;;7.64;100.00
64340;BME280;63709;53.258;-8.814;2024-01-15T00:43:46;101906.94;;;7.59;100.00
64340;BME280;63709;53.258;-8.814;2024-01-15T00:46:14;101911.13;;;7.64;100.00
64340;BME280;63709;53.258;-8.814;2024-01-15T00:48:39;101913.75;;;7.45;100.00
64340;BME280;63709;53.258;-8.814;2024-01-15T00:51:04;101907.16;;;7.34;100.00
64340;BME280;63709;53.258;-8.814;2024-01-15T00:53:30;101901.81;;;7.35;100.00
64340;BME280;63709;53.258;-8.814;2024-01-15T00:55:55;101908.97;;;7.54;100.00
64340;BME280;63709;53.258;-8.814;2024-01-15T00:58:20;101907.16;;;7.34;100.00
64340;BME280;63709;53.258;-8.814;2024-01-15T01:00:45;101906.16;;;7.57;100.00
64340;BME280;63709;53.258;-8.814;2024-01-15T01:03:11;101890.63;;;7.47;100.00
64340;BME280;63709;53.258;-8.814;2024-01-15T01:05:36;101893.41;;;7.44;100.00
64340;BME280;63709;53.258;-8.814;2024-01-15T01:08:02;101890.59;;;7.28;100.00
64340;BME280;63709;53.258;-8.814;2024-01-15T01:10:28;101886.38;;;7.43;100.00
64340;BME280;63709;53.258;-8.814;2024-01-15T01:12:53;101884.66;;;7.42;100.00
64340;BME280;63709;53.258;-8.814;2024-01-15T01:15:18;101883.59;;;7.46;100.00
64340;BME280;63709;53.258;-8.814;2024-01-15T01:17:43;101887.66;;;7.35;100.00
64340;BME280;63709;53.258;-8.814;2024-01-15T01:20:09;101901.72;;;7.37;100.00
64340;BME280;63709;53.258;-8.814;2024-01-15T01:22:35;101891.41;;;7.31;100.00
64340;BME280;63709;53.258;-8.814;2024-01-15T01:25:00;101886.00;;;7.32;100.00
64340;BME280;63709;53.258;-8.814;2024-01-15T01:27:26;101885.06;;;7.33;100.00
64340;BME280;63709;53.258;-8.814;2024-01-15T01:29:51;101877.47;;;7.44;100.00
64340;BME280;63709;53.258;-8.814;2024-01-15T01:32:17;101877.81;;;7.37;100.00
64340;BME280;63709;53.258;-8.814;2024-01-15T01:34:42;101878.41;;;7.43;100.00
64340;BME280;63709;53.258;-8.814;2024-01-15T01:37:08;101871.03;;;7.50;100.00
64340;BME280;63709;53.258;-8.814;2024-01-15T01:39:33;101878.00;;;7.52;100.00
64340;BME280;63709;53.258;-8.814;2024-01-15T01:41:58;101877.50;;;7.63;100.00
64340;BME280;63709;53.258;-8.814;2024-01-15T01:44:24;101878.19;;;7.68;100.00
64340;BME280;63709;53.258;-8.814;2024-01-15T01:46:49;101875.78;;;7.62;100.00
64340;BME280;63709;53.258;-8.814;2024-01-15T01:49:14;101877.31;;;7.68;100.00
64340;BME280;63709;53.258;-8.814;2024-01-15T01:51:40;101872.00;;;7.68;100.00
64340;BME280;63709;53.258;-8.814;2024-01-15T01:54:05;101873.84;;;7.66;100.00
64340;BME280;63709;53.258;-8.814;2024-01-15T01:56:32;101870.09;;;7.51;100.00
64340;BME280;63709;53.258;-8.814;2024-01-15T01:58:58;101875.28;;;7.54;100.00
64340;BME280;63709;53.258;-8.814;2024-01-15T02:01:23;101862.63;;;7.40;100.00
64340;BME280;63709;53.258;-8.814;2024-01-15T02:03:48;101868.34;;;7.31;100.00
64340;BME280;63709;53.258;-8.814;2024-01-15T02:06:14;101863.69;;;7.36;100.00
64340;BME280;63709;53.258;-8.814;2024-01-15T02:08:39;101859.78;;;7.24;100.00
64340;BME280;63709;53.258;-8.814;2024-01-15T02:11:04;101857.31;;;7.40;100.00
64340;BME280;63709;53.258;-8.814;2024-01-15T02:13:30;101858.03;;;7.44;100.00
64340;BME280;63709;53.258;-8.814;2024-01-15T02:15:55;101853.53;;;7.25;100.00
64340;BME280;63709;53.258;-8.814;2024-01-15T02:18:20;101843.72;;;7.27;100.00
64340;BME280;63709;53.258;-8.814;2024-01-15T02:20:46;101855.81;;;7.14;100.00
64340;BME280;63709;53.258;-8.814;2024-01-15T02:23:12;101855.34;;;7.25;100.00
64340;BME280;63709;53.258;-8.814;2024-01-15T02:25:46;101849.75;;;7.11;100.00
64340;BME280;63709;53.258;-8.814;2024-01-15T02:28:15;101859.78;;;7.04;100.00
64340;BME280;63709;53.258;-8.814;2024-01-15T02:30:42;101859.13;;;7.19;100.00
64340;BME280;63709;53.258;-8.814;2024-01-15T02:33:07;101860.38;;;7.11;100.00
64340;BME280;63709;53.258;-8.814;2024-01-15T02:35:33;101861.66;;;7.02;100.00
64340;BME280;63709;53.258;-8.814;2024-01-15T02:37:58;101860.06;;;6.98;100.00
64340;BME280;63709;53.258;-8.814;2024-01-15T02:40:23;101864.44;;;6.99;100.00
64340;BME280;63709;53.258;-8.814;2024-01-15T02:42:49;101852.38;;;7.12;100.00
64340;BME280;63709;53.258;-8.814;2024-01-15T02:45:14;101841.59;;;7.15;100.00
64340;BME280;63709;53.258;-8.814;2024-01-15T02:47:39;101843.66;;;6.88;100.00
64340;BME280;63709;53.258;-8.814;2024-01-15T02:50:05;101850.78;;;6.88;100.00
64340;BME280;63709;53.258;-8.814;2024-01-15T02:52:30;101846.16;;;6.71;100.00
64340;BME280;63709;53.258;-8.814;2024-01-15T02:54:55;101834.00;;;6.87;100.00
64340;BME280;63709;53.258;-8.814;2024-01-15T02:57:21;101847.63;;;6.78;100.00
64340;BME280;63709;53.258;-8.814;2024-01-15T02:59:46;101864.03;;;6.88;100.00
64340;BME280;63709;53.258;-8.814;2024-01-15T03:02:11;101859.88;;;7.02;100.00
64340;BME280;63709;53.258;-8.814;2024-01-15T03:04:37;101858.16;;;7.01;100.00
64340;BME280;63709;53.258;-8.814;2024-01-15T03:07:02;101846.72;;;6.99;100.00
64340;BME280;63709;53.258;-8.814;2024-01-15T03:09:27;101848.31;;;7.03;100.00
64340;BME280;63709;53.258;-8.814;2024-01-15T03:11:53;101827.50;;;6.94;100.00
64340;BME280;63709;53.258;-8.814;2024-01-15T03:14:18;101820.25;;;6.98;100.00
64340;BME280;63709;53.258;-8.814;2024-01-15T03:16:45;101828.00;;;6.82;100.00
64340;BME280;63709;53.258;-8.814;2024-01-15T03:19:10;101833.00;;;6.90;100.00
64340;BME280;63709;53.258;-8.814;2024-01-15T03:21:36;101828.75;;;7.06;100.00
64340;BME280;63709;53.258;-8.814;2024-01-15T03:24:01;101845.59;;;6.85;100.00
64340;BME280;63709;53.258;-8.814;2024-01-15T03:26:26;101833.88;;;6.90;100.00
64340;BME280;63709;53.258;-8.814;2024-01-15T03:28:51;101831.41;;;7.06;100.00
64340;BME280;63709;53.258;-8.814;2024-01-15T03:31:17;101832.78;;;6.94;100.00
64340;BME280;63709;53.258;-8.814;2024-01-15T03:33:42;101838.03;;;6.96;100.00
64340;BME280;63709;53.258;-8.814;2024-01-15T03:36:07;101830.66;;;7.02;100.00
64340;BME280;63709;53.258;-8.814;2024-01-15T03:38:33;101840.34;;;6.83;100.00
64340;BME280;63709;53.258;-8.814;2024-01-15T03:40:58;101835.06;;;6.83;100.00
64340;BME280;63709;53.258;-8.814;2024-01-15T03:43:23;101841.09;;;6.87;100.00
64340;BME280;63709;53.258;-8.814;2024-01-15T03:45:48;101838.44;;;6.87;100.00
64340;BME280;63709;53.258;-8.814;2024-01-15T03:48:14;101826.69;;;6.92;100.00
64340;BME280;63709;53.258;-8.814;2024-01-15T03:50:39;101823.50;;;6.84;100.00
64340;BME280;63709;53.258;-8.814;2024-01-15T03:53:04;101830.94;;;6.76;100.00
64340;BME280;63709;53.258;-8.814;2024-01-15T03:55:29;101825.63;;;6.76;100.00
64340;BME280;63709;53.258;-8.814;2024-01-15T03:57:55;101817.47;;;6.81;100.00
64340;BME280;63709;53.258;-8.814;2024-01-15T04:00:20;101815.34;;;6.68;100.00
64340;BME280;63709;53.258;-8.814;2024-01-15T04:02:45;101816.53;;;6.61;100.00
64340;BME280;63709;53.258;-8.814;2024-01-15T04:05:11;101815.72;;;6.59;100.00
64340;BME280;63709;53.258;-8.814;2024-01-15T04:07:36;101787.53;;;6.14;100.00
64340;BME280;63709;53.258;-8.814;2024-01-15T04:10:01;101823.66;;;6.39;100.00
64340;BME280;63709;53.258;-8.814;2024-01-15T04:12:27;101824.56;;;6.38;100.00
64340;BME280;63709;53.258;-8.814;2024-01-15T04:14:52;101827.78;;;6.46;100.00
64340;BME280;63709;53.258;-8.814;2024-01-15T04:17:17;101826.94;;;6.45;100.00
64340;BME280;63709;53.258;-8.814;2024-01-15T04:19:46;101821.06;;;6.37;100.00
64340;BME280;63709;53.258;-8.814;2024-01-15T04:22:13;101829.03;;;6.15;100.00
64340;BME280;63709;53.258;-8.814;2024-01-15T04:24:38;101825.69;;;6.10;100.00
64340;BME280;63709;53.258;-8.814;2024-01-15T04:27:03;101832.84;;;6.08;100.00
64340;BME280;63709;53.258;-8.814;2024-01-15T04:29:29;101827.72;;;6.03;100.00
64340;BME280;63709;53.258;-8.814;2024-01-15T04:31:54;101825.28;;;5.99;100.00
64340;BME280;63709;53.258;-8.814;2024-01-15T04:34:19;101823.81;;;5.90;100.00
64340;BME280;63709;53.258;-8.814;2024-01-15T04:36:44;101829.72;;;5.98;100.00
64340;BME280;63709;53.258;-8.814;2024-01-15T04:39:10;101825.34;;;5.97;100.00
64340;BME280;63709;53.258;-8.814;2024-01-15T04:41:36;101830.69;;;5.96;100.00
64340;BME280;63709;53.258;-8.814;2024-01-15T04:44:02;101829.03;;;5.92;100.00
64340;BME280;63709;53.258;-8.814;2024-01-15T04:46:27;101825.63;;;6.12;100.00
64340;BME280;63709;53.258;-8.814;2024-01-15T04:48:52;101823.44;;;6.01;100.00
64340;BME280;63709;53.258;-8.814;2024-01-15T04:51:17;101820.41;;;6.10;100.00
64340;BME280;63709;53.258;-8.814;2024-01-15T04:53:43;101819.84;;;6.24;100.00
64340;BME280;63709;53.258;-8.814;2024-01-15T04:56:08;101822.75;;;6.18;100.00
64340;BME280;63709;53.258;-8.814;2024-01-15T04:58:33;101829.41;;;6.06;100.00
64340;BME280;63709;53.258;-8.814;2024-01-15T05:00:58;101837.09;;;5.89;100.00
64340;BME280;63709;53.258;-8.814;2024-01-15T05:03:24;101838.53;;;5.99;100.00
64340;BME280;63709;53.258;-8.814;2024-01-15T05:05:49;101830.06;;;6.11;100.00
64340;BME280;63709;53.258;-8.814;2024-01-15T05:08:14;101828.53;;;6.05;100.00
64340;BME280;63709;53.258;-8.814;2024-01-15T05:10:40;101829.03;;;6.15;100.00
64340;BME280;63709;53.258;-8.814;2024-01-15T05:13:05;101833.84;;;6.05;100.00
64340;BME280;63709;53.258;-8.814;2024-01-15T05:15:30;101834.69;;;6.06;100.00
64340;BME280;63709;53.258;-8.814;2024-01-15T05:17:55;101826.38;;;5.93;100.00
64340;BME280;63709;53.258;-8.814;2024-01-15T05:20:21;101833.81;;;5.82;100.00
64340;BME280;63709;53.258;-8.814;2024-01-15T05:22:46;101825.09;;;5.80;100.00
64340;BME280;63709;53.258;-8.814;2024-01-15T05:25:12;101825.66;;;5.88;100.00
64340;BME280;63709;53.258;-8.814;2024-01-15T05:27:37;101826.88;;;5.79;100.00
64340;BME280;63709;53.258;-8.814;2024-01-15T05:30:03;101826.38;;;5.70;100.00
64340;BME280;63709;53.258;-8.814;2024-01-15T05:32:29;101834.06;;;5.52;100.00
64340;BME280;63709;53.258;-8.814;2024-01-15T05:34:54;101833.91;;;5.80;100.00
64340;BME280;63709;53.258;-8.814;2024-01-15T05:37:19;101837.72;;;5.73;100.00
64340;BME280;63709;53.258;-8.814;2024-01-15T05:39:45;101843.53;;;5.83;100.00
64340;BME280;63709;53.258;-8.814;2024-01-15T05:42:10;101846.50;;;5.74;100.00
64340;BME280;63709;53.258;-8.814;2024-01-15T05:44:35;101848.03;;;5.57;100.00
64340;BME280;63709;53.258;-8.814;2024-01-15T05:47:00;101835.81;;;5.53;100.00
64340;BME280;63709;53.258;-8.814;2024-01-15T05:49:26;101831.09;;;5.62;100.00
64340;BME280;63709;53.258;-8.814;2024-01-15T05:51:51;101832.31;;;5.53;100.00
64340;BME280;63709;53.258;-8.814;2024-01-15T05:54:18;101838.44;;;5.30;100.00
64340;BME280;63709;53.258;-8.814;2024-01-15T05:56:43;101847.56;;;5.23;100.00
64340;BME280;63709;53.258;-8.814;2024-01-15T05:59:09;101844.16;;;5.19;100.00
64340;BME280;63709;53.258;-8.814;2024-01-15T06:01:34;101845.97;;;5.17;100.00
64340;BME280;63709;53.258;-8.814;2024-01-15T06:03:59;101843.34;;;5.17;100.00
64340;BME280;63709;53.258;-8.814;2024-01-15T06:06:24;101843.44;;;5.14;100.00
64340;BME280;63709;53.258;-8.814;2024-01-15T06:08:50;101842.25;;;5.23;100.00
64340;BME280;63709;53.258;-8.814;2024-01-15T06:11:15;101839.28;;;5.32;100.00
64340;BME280;63709;53.258;-8.814;2024-01-15T06:13:40;101845.03;;;5.43;100.00
64340;BME280;63709;53.258;-8.814;2024-01-15T06:16:15;101844.63;;;5.30;100.00
64340;BME280;63709;53.258;-8.814;2024-01-15T06:18:41;101850.09;;;5.49;100.00
64340;BME280;63709;53.258;-8.814;2024-01-15T06:21:06;101853.53;;;5.28;100.00
64340;BME280;63709;53.258;-8.814;2024-01-15T06:23:32;101851.09;;;5.22;100.00
64340;BME280;63709;53.258;-8.814;2024-01-15T06:25:57;101851.81;;;5.27;100.00
64340;BME280;63709;53.258;-8.814;2024-01-15T06:28:22;101851.44;;;5.13;100.00
64340;BME280;63709;53.258;-8.814;2024-01-15T06:30:47;101851.72;;;5.05;100.00
64340;BME280;63709;53.258;-8.814;2024-01-15T06:33:13;101848.63;;;5.17;100.00
64340;BME280;63709;53.258;-8.814;2024-01-15T06:35:38;101845.16;;;5.15;100.00
64340;BME280;63709;53.258;-8.814;2024-01-15T06:38:03;101844.78;;;5.26;100.00
64340;BME280;63709;53.258;-8.814;2024-01-15T06:40:29;101846.25;;;5.09;100.00
64340;BME280;63709;53.258;-8.814;2024-01-15T06:42:54;101850.19;;;4.98;100.00
64340;BME280;63709;53.258;-8.814;2024-01-15T06:45:19;101848.53;;;4.95;100.00
64340;BME280;63709;53.258;-8.814;2024-01-15T06:47:44;101850.06;;;5.26;100.00
64340;BME280;63709;53.258;-8.814;2024-01-15T06:50:10;101851.06;;;5.23;100.00
64340;BME280;63709;53.258;-8.814;2024-01-15T06:52:35;101851.81;;;5.02;100.00
64340;BME280;63709;53.258;-8.814;2024-01-15T06:55:00;101849.44;;;4.94;100.00
64340;BME280;63709;53.258;-8.814;2024-01-15T06:57:26;101853.66;;;5.00;100.00
64340;BME280;63709;53.258;-8.814;2024-01-15T06:59:51;101847.38;;;5.02;100.00
64340;BME280;63709;53.258;-8.814;2024-01-15T07:02:16;101854.72;;;4.94;100.00
64340;BME280;63709;53.258;-8.814;2024-01-15T07:04:41;101848.22;;;5.04;100.00
64340;BME280;63709;53.258;-8.814;2024-01-15T07:07:07;101854.47;;;5.02;100.00
64340;BME280;63709;53.258;-8.814;2024-01-15T07:09:32;101854.19;;;4.84;100.00
64340;BME280;63709;53.258;-8.814;2024-01-15T07:11:57;101856.22;;;4.76;100.00
64340;BME280;63709;53.258;-8.814;2024-01-15T07:14:23;101863.41;;;4.73;100.00
64340;BME280;63709;53.258;-8.814;2024-01-15T07:16:48;101861.34;;;4.81;100.00
64340;BME280;63709;53.258;-8.814;2024-01-15T07:19:13;101860.66;;;4.76;100.00
64340;BME280;63709;53.258;-8.814;2024-01-15T07:21:39;101854.44;;;4.77;100.00
64340;BME280;63709;53.258;-8.814;2024-01-15T07:24:05;101863.41;;;4.73;100.00
64340;BME280;63709;53.258;-8.814;2024-01-15T07:26:30;101855.78;;;4.89;100.00
64340;BME280;63709;53.258;-8.814;2024-01-15T07:28:56;101861.94;;;4.64;100.00
64340;BME280;63709;53.258;-8.814;2024-01-15T07:31:21;101862.78;;;4.91;100.00
64340;BME280;63709;53.258;-8.814;2024-01-15T07:33:47;101859.91;;;4.72;100.00
64340;BME280;63709;53.258;-8.814;2024-01-15T07:36:12;101857.34;;;4.69;100.00
64340;BME280;63709;53.258;-8.814;2024-01-15T07:38:37;101866.72;;;4.79;100.00
64340;BME280;63709;53.258;-8.814;2024-01-15T07:41:03;101858.03;;;4.74;100.00
64340;BME280;63709;53.258;-8.814;2024-01-15T07:43:29;101854.91;;;4.90;100.00
64340;BME280;63709;53.258;-8.814;2024-01-15T07:45:54;101848.31;;;5.01;100.00
64340;BME280;63709;53.258;-8.814;2024-01-15T07:48:20;101840.34;;;4.76;100.00
64340;BME280;63709;53.258;-8.814;2024-01-15T07:50:45;101862.31;;;4.52;100.00
64340;BME280;63709;53.258;-8.814;2024-01-15T07:53:10;101864.47;;;4.41;100.00
64340;BME280;63709;53.258;-8.814;2024-01-15T07:55:36;101868.69;;;4.46;100.00
64340;BME280;63709;53.258;-8.814;2024-01-15T07:58:01;101861.97;;;4.63;100.00
64340;BME280;63709;53.258;-8.814;2024-01-15T08:00:27;101874.41;;;4.60;100.00
64340;BME280;63709;53.258;-8.814;2024-01-15T08:02:52;101880.03;;;4.50;100.00
64340;BME280;63709;53.258;-8.814;2024-01-15T08:05:18;101880.38;;;4.66;100.00
64340;BME280;63709;53.258;-8.814;2024-01-15T08:07:44;101879.69;;;4.60;100.00
64340;BME280;63709;53.258;-8.814;2024-01-15T08:10:09;101879.72;;;4.59;100.00
64340;BME280;63709;53.258;-8.814;2024-01-15T08:12:35;101885.75;;;4.36;100.00
64340;BME280;63709;53.258;-8.814;2024-01-15T08:15:00;101876.78;;;4.42;100.00
64340;BME280;63709;53.258;-8.814;2024-01-15T08:17:25;101871.88;;;4.56;100.00
64340;BME280;63709;53.258;-8.814;2024-01-15T08:19:54;101871.63;;;4.37;100.00
64340;BME280;63709;53.258;-8.814;2024-01-15T08:22:19;101874.16;;;4.40;100.00
64340;BME280;63709;53.258;-8.814;2024-01-15T08:24:45;101878.66;;;4.38;100.00
64340;BME280;63709;53.258;-8.814;2024-01-15T08:27:10;101867.31;;;4.34;100.00
64340;BME280;63709;53.258;-8.814;2024-01-15T08:29:36;101874.16;;;4.40;100.00
64340;BME280;63709;53.258;-8.814;2024-01-15T08:32:01;101886.38;;;4.44;100.00
64340;BME280;63709;53.258;-8.814;2024-01-15T08:34:26;101888.72;;;4.53;100.00
64340;BME280;63709;53.258;-8.814;2024-01-15T08:36:51;101885.47;;;4.45;100.00
64340;BME280;63709;53.258;-8.814;2024-01-15T08:39:17;101889.75;;;4.49;100.00
64340;BME280;63709;53.258;-8.814;2024-01-15T08:41:44;101891.03;;;4.64;100.00
64340;BME280;63709;53.258;-8.814;2024-01-15T08:44:11;101895.84;;;4.51;100.00
64340;BME280;63709;53.258;-8.814;2024-01-15T08:46:36;101886.94;;;4.80;100.00
64340;BME280;63709;53.258;-8.814;2024-01-15T08:49:02;101893.91;;;4.83;100.00
64340;BME280;63709;53.258;-8.814;2024-01-15T08:51:28;101903.91;;;4.75;100.00
64340;BME280;63709;53.258;-8.814;2024-01-15T08:53:53;101910.81;;;4.79;100.00
64340;BME280;63709;53.258;-8.814;2024-01-15T08:56:18;101905.91;;;4.67;100.00
64340;BME280;63709;53.258;-8.814;2024-01-15T08:58:44;101904.09;;;4.69;100.00
64340;BME280;63709;53.258;-8.814;2024-01-15T09:01:11;101888.41;;;4.63;100.00
64340;BME280;63709;53.258;-8.814;2024-01-15T09:03:36;101906.13;;;4.60;100.00
64340;BME280;63709;53.258;-8.814;2024-01-15T09:06:01;101899.31;;;4.53;100.00
64340;BME280;63709;53.258;-8.814;2024-01-15T09:08:27;101901.13;;;4.78;100.00
64340;BME280;63709;53.258;-8.814;2024-01-15T09:10:53;101912.72;;;4.74;100.00
64340;BME280;63709;53.258;-8.814;2024-01-15T09:13:18;101903.25;;;4.67;100.00
64340;BME280;63709;53.258;-8.814;2024-01-15T09:15:43;101897.53;;;4.80;100.00
64340;BME280;63709;53.258;-8.814;2024-01-15T09:18:09;101910.69;;;4.82;100.00
64340;BME280;63709;53.258;-8.814;2024-01-15T09:20:34;101904.66;;;4.78;100.00
64340;BME280;63709;53.258;-8.814;2024-01-15T09:22:59;101908.16;;;4.79;100.00
64340;BME280;63709;53.258;-8.814;2024-01-15T09:25:25;101907.31;;;4.78;100.00
64340;BME280;63709;53.258;-8.814;2024-01-15T09:27:50;101924.13;;;4.76;100.00
64340;BME280;63709;53.258;-8.814;2024-01-15T09:30:15;101913.03;;;4.65;100.00
64340;BME280;63709;53.258;-8.814;2024-01-15T09:32:41;101921.66;;;4.71;100.00
64340;BME280;63709;53.258;-8.814;2024-01-15T09:35:06;101914.59;;;4.70;100.00
64340;BME280;63709;53.258;-8.814;2024-01-15T09:37:31;101918.88;;;5.01;100.00
64340;BME280;63709;53.258;-8.814;2024-01-15T09:39:57;101917.63;;;5.11;100.00
64340;BME280;63709;53.258;-8.814;2024-01-15T09:42:23;101918.66;;;5.07;100.00
64340;BME280;63709;53.258;-8.814;2024-01-15T09:44:49;101915.75;;;5.15;100.00
64340;BME280;63709;53.258;-8.814;2024-01-15T09:47:15;101916.34;;;4.98;100.00
64340;BME280;63709;53.258;-8.814;2024-01-15T09:49:41;101910.69;;;5.08;100.00
64340;BME280;63709;53.258;-8.814;2024-01-15T09:52:07;101898.25;;;5.10;100.00
64340;BME280;63709;53.258;-8.814;2024-01-15T09:54:33;101907.13;;;5.34;100.00
64340;BME280;63709;53.258;-8.814;2024-01-15T09:56:58;101905.34;;;5.35;100.00
64340;BME280;63709;53.258;-8.814;2024-01-15T09:59:25;101897.97;;;5.43;100.00
64340;BME280;63709;53.258;-8.814;2024-01-15T10:01:51;101892.28;;;5.54;100.00
64340;BME280;63709;53.258;-8.814;2024-01-15T10:04:17;101885.78;;;5.63;100.00
64340;BME280;63709;53.258;-8.814;2024-01-15T10:06:44;101887.25;;;5.71;100.00
64340;BME280;63709;53.258;-8.814;2024-01-15T10:09:10;101886.25;;;5.74;100.00
64340;BME280;63709;53.258;-8.814;2024-01-15T10:11:39;101886.03;;;6.03;100.00
64340;BME280;63709;53.258;-8.814;2024-01-15T10:14:04;101883.06;;;6.35;100.00
64340;BME280;63709;53.258;-8.814;2024-01-15T10:16:30;101886.25;;;6.65;100.00
64340;BME280;63709;53.258;-8.814;2024-01-15T10:18:55;101892.41;;;6.86;100.00
64340;BME280;63709;53.258;-8.814;2024-01-15T10:21:20;101893.88;;;6.93;100.00
64340;BME280;63709;53.258;-8.814;2024-01-15T10:23:45;101899.22;;;7.13;100.00
64340;BME280;63709;53.258;-8.814;2024-01-15T10:26:11;101904.84;;;7.46;100.00
64340;BME280;63709;53.258;-8.814;2024-01-15T10:28:40;101904.91;;;7.45;100.00
64340;BME280;63709;53.258;-8.814;2024-01-15T10:31:06;101908.88;;;7.55;100.00
64340;BME280;63709;53.258;-8.814;2024-01-15T10:33:31;101908.97;;;7.54;100.00
64340;BME280;63709;53.258;-8.814;2024-01-15T10:35:57;101907.41;;;7.48;100.00
64340;BME280;63709;53.258;-8.814;2024-01-15T10:38:23;101910.50;;;7.39;100.00
64340;BME280;63709;53.258;-8.814;2024-01-15T10:40:55;101918.59;;;7.36;100.00
64340;BME280;63709;53.258;-8.814;2024-01-15T10:43:20;101922.75;;;7.62;100.00
64340;BME280;63709;53.258;-8.814;2024-01-15T10:45:49;101913.13;;;7.59;100.00
64340;BME280;63709;53.258;-8.814;2024-01-15T10:48:18;101915.13;;;7.54;100.00
64340;BME280;63709;53.258;-8.814;2024-01-15T10:50:45;101914.41;;;7.90;100.00
64340;BME280;63709;53.258;-8.814;2024-01-15T10:53:11;101920.81;;;7.65;100.00
64340;BME280;63709;53.258;-8.814;2024-01-15T10:55:37;101912.72;;;7.68;100.00
64340;BME280;63709;53.258;-8.814;2024-01-15T10:58:03;101924.97;;;7.71;100.00
64340;BME280;63709;53.258;-8.814;2024-01-15T11:00:29;101922.91;;;7.78;100.00
64340;BME280;63709;53.258;-8.814;2024-01-15T11:02:54;101926.25;;;7.83;100.00
64340;BME280;63709;53.258;-8.814;2024-01-15T11:05:22;101930.16;;;7.74;100.00
64340;BME280;63709;53.258;-8.814;2024-01-15T11:07:48;101929.19;;;7.76;100.00
64340;BME280;63709;53.258;-8.814;2024-01-15T11:10:59;101936.34;;;7.74;100.00
64340;BME280;63709;53.258;-8.814;2024-01-15T11:12:59;101939.91;;;7.55;100.00
64340;BME280;63709;53.258;-8.814;2024-01-15T11:15:25;101939.50;;;7.43;100.00
64340;BME280;63709;53.258;-8.814;2024-01-15T11:17:57;101944.22;;;7.37;100.00
64340;BME280;63709;53.258;-8.814;2024-01-15T11:20:24;101938.69;;;7.41;100.00
64340;BME280;63709;53.258;-8.814;2024-01-15T11:22:49;101939.78;;;7.58;100.00
64340;BME280;63709;53.258;-8.814;2024-01-15T11:25:15;101919.59;;;7.54;100.00
64340;BME280;63709;53.258;-8.814;2024-01-15T11:27:47;101927.22;;;7.61;100.00
64340;BME280;63709;53.258;-8.814;2024-01-15T11:30:13;101940.09;;;7.50;100.00
64340;BME280;63709;53.258;-8.814;2024-01-15T11:32:38;101937.44;;;7.50;100.00
64340;BME280;63709;53.258;-8.814;2024-01-15T11:35:07;101932.88;;;7.54;100.00
64340;BME280;63709;53.258;-8.814;2024-01-15T11:40:21;101935.78;;;7.47;100.00
64340;BME280;63709;53.258;-8.814;2024-01-15T11:42:46;101921.00;;;7.42;100.00
64340;BME280;63709;53.258;-8.814;2024-01-15T11:45:13;101925.25;;;7.46;100.00
64340;BME280;63709;53.258;-8.814;2024-01-15T11:50:22;101912.69;;;7.49;100.00
64340;BME280;63709;53.258;-8.814;2024-01-15T11:52:51;101917.88;;;7.32;100.00
64340;BME280;63709;53.258;-8.814;2024-01-15T11:55:28;101913.03;;;7.21;100.00
64340;BME280;63709;53.258;-8.814;2024-01-15T11:57:54;101906.38;;;7.32;100.00
64340;BME280;63709;53.258;-8.814;2024-01-15T12:00:23;101905.56;;;7.30;100.00
64340;BME280;63709;53.258;-8.814;2024-01-15T12:02:49;101896.75;;;7.49;100.00
64340;BME280;63709;53.258;-8.814;2024-01-15T12:05:16;101895.75;;;7.71;100.00
64340;BME280;63709;53.258;-8.814;2024-01-15T12:07:42;101891.72;;;7.62;100.00
64340;BME280;63709;53.258;-8.814;2024-01-15T12:10:11;101889.19;;;7.98;100.00
64340;BME280;63709;53.258;-8.814;2024-01-15T12:15:05;101876.50;;;8.41;100.00
64340;BME280;63709;53.258;-8.814;2024-01-15T12:17:30;101879.03;;;8.07;100.00
64340;BME280;63709;53.258;-8.814;2024-01-15T12:19:56;101870.91;;;8.65;100.00
64340;BME280;63709;53.258;-8.814;2024-01-15T12:22:21;101875.59;;;8.60;100.00
64340;BME280;63709;53.258;-8.814;2024-01-15T12:24:47;101877.81;;;8.69;100.00
64340;BME280;63709;53.258;-8.814;2024-01-15T12:27:12;101878.75;;;8.85;100.00
64340;BME280;63709;53.258;-8.814;2024-01-15T12:29:37;101877.19;;;8.99;100.00
64340;BME280;63709;53.258;-8.814;2024-01-15T12:32:04;101864.94;;;9.29;100.00
64340;BME280;63709;53.258;-8.814;2024-01-15T12:34:29;101864.88;;;9.31;100.00
64340;BME280;63709;53.258;-8.814;2024-01-15T12:36:57;101875.44;;;9.15;100.00
64340;BME280;63709;53.258;-8.814;2024-01-15T12:39:22;101872.69;;;9.34;100.00